Time;durP1;ratioP1;P1;durP2;ratioP2;P2;SDS_P1;SDS_P2;PMS_P1;PMS_P2;Temp;Humidity;BMP_temperature;BMP_pressure;BME280_temperature;BME280_humidity;BME280_pressure;Samples;Min_cycle;Max_cycle;Signal;HPM_P1;HPM_P2
2022/09/10 00:00:26;;;;;;;;;;;;;;;14.63;100.00;97796.95;1729362;82;20170;-85
2022/09/10 00:02:53;;;;;;;;;;;;;;;14.61;100.00;97794.55;1740730;82;20185;-89
2022/09/10 00:05:20;;;;;;;;;;;;;;;14.59;100.00;97791.86;1736640;82;20226;-85
2022/09/10 00:07:46;;;;;;;;;;;;;;;14.61;100.00;97792.35;1702958;82;20432;-86
2022/09/10 00:10:12;;;;;;;;;;;;;;;14.64;100.00;97791.75;1705228;82;20421;-85
2022/09/10 00:12:38;;;;;;;;;;;;;;;14.67;100.00;97794.64;1699951;82;20165;-86
2022/09/10 00:15:05;;;;;;;;;;;;;;;14.70;100.00;97801.95;1717278;82;21843;-92
2022/09/10 00:17:35;;;;;;;;;;;;;;;14.66;100.00;97797.13;1734677;82;20155;-92
2022/09/10 00:19:58;;;;;;;;;;;;;;;14.66;100.00;97793.03;1724064;82;20158;-91
2022/09/10 00:22:24;;;;;;;;;;;;;;;14.68;100.00;97780.45;1728919;82;20273;-91
2022/09/10 00:24:55;;;;;;;;;;;;;;;14.71;100.00;97786.66;1721453;82;20171;-90
2022/09/10 00:27:21;;;;;;;;;;;;;;;14.72;100.00;97788.83;1705744;82;20810;-85
2022/09/10 00:29:51;;;;;;;;;;;;;;;14.71;100.00;97788.59;1704578;82;20265;-93
2022/09/10 00:32:17;;;;;;;;;;;;;;;14.71;100.00;97794.04;1745049;82;20217;-85
2022/09/10 00:34:43;;;;;;;;;;;;;;;14.72;100.00;97793.72;1730133;82;20181;-85
2022/09/10 00:37:09;;;;;;;;;;;;;;;14.76;100.00;97795.26;1720496;82;20166;-92
2022/09/10 00:39:34;;;;;;;;;;;;;;;14.80;100.00;97793.53;1720128;82;21235;-93
2022/09/10 00:42:00;;;;;;;;;;;;;;;14.79;100.00;97800.11;1720492;82;20193;-92
2022/09/10 00:44:43;;;;;;;;;;;;;;;14.77;100.00;97800.39;1720656;82;20217;-89
2022/09/10 00:47:25;;;;;;;;;;;;;;;14.76;100.00;97799.34;1732066;82;20186;-91
2022/09/10 00:50:06;;;;;;;;;;;;;;;14.74;100.00;97795.57;1742013;82;20174;-91
2022/09/10 00:52:32;;;;;;;;;;;;;;;14.74;100.00;97805.68;1718643;82;21032;-91
2022/09/10 00:54:58;;;;;;;;;;;;;;;14.71;100.00;97812.57;1726585;82;20177;-92
2022/09/10 00:57:24;;;;;;;;;;;;;;;14.69;100.00;97812.05;1698278;82;20259;-85
2022/09/10 00:59:52;;;;;;;;;;;;;;;14.69;100.00;97817.51;1713886;80;20166;-84
2022/09/10 01:02:18;;;;;;;;;;;;;;;14.71;100.00;97822.67;1720484;82;20170;-85
2022/09/10 01:04:44;;;;;;;;;;;;;;;14.69;100.00;97822.96;1720352;82;21980;-92
2022/09/10 01:07:10;;;;;;;;;;;;;;;14.69;100.00;97825.69;1718431;82;20209;-93
2022/09/10 01:09:36;;;;;;;;;;;;;;;14.65;100.00;97829.61;1711404;80;20755;-85
2022/09/10 01:12:31;;;;;;;;;;;;;;;14.63;100.00;97827.75;1695240;82;20544;-92
2022/09/10 01:15:04;;;;;;;;;;;;;;;14.59;100.00;97825.39;1726211;82;20197;-92
2022/09/10 01:17:45;;;;;;;;;;;;;;;14.58;100.00;97822.41;1745095;82;21055;-85
2022/09/10 01:20:50;;;;;;;;;;;;;;;14.56;100.00;97819.20;1735455;82;20179;-92
2022/09/10 01:23:28;;;;;;;;;;;;;;;14.56;100.00;97820.56;1720291;82;20183;-84
2022/09/10 01:26:01;;;;;;;;;;;;;;;14.52;100.00;97817.39;1707918;82;20142;-84
2022/09/10 01:28:48;;;;;;;;;;;;;;;14.51;100.00;97817.14;1717828;82;20170;-93
2022/09/10 01:31:25;;;;;;;;;;;;;;;14.52;100.00;97819.55;1719805;82;21132;-87
2022/09/10 01:34:06;;;;;;;;;;;;;;;14.52;100.00;97819.55;1708424;83;20157;-84
2022/09/10 01:36:33;;;;;;;;;;;;;;;14.55;100.00;97814.87;1709420;82;20156;-84
2022/09/10 01:39:00;;;;;;;;;;;;;;;14.59;100.00;97812.31;1704502;82;20139;-84
2022/09/10 01:41:26;;;;;;;;;;;;;;;14.55;100.00;97810.78;1692933;82;20170;-92
2022/09/10 01:43:52;;;;;;;;;;;;;;;14.53;100.00;97805.39;1728078;82;21067;-92
2022/09/10 01:46:30;;;;;;;;;;;;;;;14.50;100.00;97808.16;1734110;82;20188;-90
2022/09/10 01:49:30;;;;;;;;;;;;;;;14.50;100.00;97805.44;1720088;82;20190;-92
2022/09/10 01:52:08;;;;;;;;;;;;;;;14.50;100.00;97795.89;1745084;82;20347;-84
2022/09/10 01:54:40;;;;;;;;;;;;;;;14.51;100.00;97796.70;1745458;82;20554;-85
2022/09/10 01:57:16;;;;;;;;;;;;;;;14.48;100.00;97794.05;1734188;82;21121;-92
2022/09/10 01:59:52;;;;;;;;;;;;;;;14.48;100.00;97789.16;1730221;82;20167;-84
2022/09/10 02:02:21;;;;;;;;;;;;;;;14.46;100.00;97790.03;1722358;82;20427;-85
2022/09/10 02:04:49;;;;;;;;;;;;;;;14.44;100.00;97786.22;1720509;82;20521;-86
2022/09/10 02:07:15;;;;;;;;;;;;;;;14.49;100.00;97793.48;1720515;82;20634;-85
2022/09/10 02:09:41;;;;;;;;;;;;;;;14.51;100.00;97796.70;1681541;82;21057;-86
2022/09/10 02:12:07;;;;;;;;;;;;;;;14.48;100.00;97791.88;1707340;82;20230;-89
2022/09/10 02:14:33;;;;;;;;;;;;;;;14.46;100.00;97784.02;1711213;82;20467;-91
2022/09/10 02:16:59;;;;;;;;;;;;;;;14.47;100.00;97782.89;1732466;82;20195;-85
2022/09/10 02:19:25;;;;;;;;;;;;;;;14.48;100.00;97779.05;1709480;82;20179;-92
2022/09/10 02:21:52;;;;;;;;;;;;;;;14.50;100.00;97771.36;1729928;82;21860;-91
2022/09/10 02:24:18;;;;;;;;;;;;;;;14.49;100.00;97762.94;1733710;82;20167;-85
2022/09/10 02:26:46;;;;;;;;;;;;;;;14.50;100.00;97765.11;1745204;82;20189;-91
2022/09/10 02:29:12;;;;;;;;;;;;;;;14.49;100.00;97760.21;1705480;83;20172;-85
2022/09/10 02:31:39;;;;;;;;;;;;;;;14.48;100.00;97766.78;1720330;82;20980;-85
2022/09/10 02:34:05;;;;;;;;;;;;;;;14.47;100.00;97778.00;1720154;82;20993;-85
2022/09/10 02:36:31;;;;;;;;;;;;;;;14.45;100.00;97777.48;1738817;82;20166;-84
2022/09/10 02:38:58;;;;;;;;;;;;;;;14.35;100.00;97767.05;1735239;82;20746;-91
2022/09/10 02:41:24;;;;;;;;;;;;;;;14.37;100.00;97768.13;1720765;82;20391;-92
2022/09/10 02:43:53;;;;;;;;;;;;;;;14.36;100.00;97772.78;1737738;82;20216;-85
2022/09/10 02:46:19;;;;;;;;;;;;;;;14.34;100.00;97766.00;1719445;82;20545;-84
2022/09/10 02:48:44;;;;;;;;;;;;;;;14.31;100.00;97766.08;1737614;82;20334;-85
2022/09/10 02:51:11;;;;;;;;;;;;;;;14.30;100.00;97769.92;1718169;82;20162;-92
2022/09/10 02:53:37;;;;;;;;;;;;;;;14.32;100.00;97777.22;1744889;82;20163;-91
2022/09/10 02:56:03;;;;;;;;;;;;;;;14.35;100.00;97773.06;1713174;82;20189;-84
2022/09/10 02:58:32;;;;;;;;;;;;;;;14.38;100.00;97772.46;1700127;82;21054;-85
2022/09/10 03:01:16;;;;;;;;;;;;;;;14.42;100.00;97770.71;1737613;82;20198;-84
2022/09/10 03:03:42;;;;;;;;;;;;;;;14.45;100.00;97763.33;1745091;82;20190;-91
2022/09/10 03:06:08;;;;;;;;;;;;;;;14.47;100.00;97776.08;1727491;82;20742;-91
2022/09/10 03:08:34;;;;;;;;;;;;;;;14.46;100.00;97773.11;1732967;82;20212;-92
2022/09/10 03:11:00;;;;;;;;;;;;;;;14.48;100.00;97772.23;1732397;82;21227;-90
2022/09/10 03:13:26;;;;;;;;;;;;;;;14.52;100.00;97767.76;1670041;82;20363;-92
2022/09/10 03:15:57;;;;;;;;;;;;;;;14.53;100.00;97763.94;1720470;82;20140;-91
2022/09/10 03:18:23;;;;;;;;;;;;;;;14.56;100.00;97757.86;1720390;82;20385;-86
2022/09/10 03:20:49;;;;;;;;;;;;;;;14.60;100.00;97767.01;1720607;82;20136;-91
2022/09/10 03:23:15;;;;;;;;;;;;;;;14.63;100.00;97758.78;1720320;82;20965;-92
2022/09/10 03:25:41;;;;;;;;;;;;;;;14.66;100.00;97759.52;1745204;82;20580;-85
2022/09/10 03:28:08;;;;;;;;;;;;;;;14.65;100.00;97760.63;1723757;82;20197;-92
2022/09/10 03:30:35;;;;;;;;;;;;;;;14.65;100.00;97762.80;1744381;82;20224;-92
2022/09/10 03:33:01;;;;;;;;;;;;;;;14.66;100.00;97762.23;1745188;82;20213;-91
2022/09/10 03:35:27;;;;;;;;;;;;;;;14.67;100.00;97763.84;1734862;82;21017;-92
2022/09/10 03:37:52;;;;;;;;;;;;;;;14.67;100.00;97767.37;1719320;82;20205;-86
2022/09/10 03:40:18;;;;;;;;;;;;;;;14.66;100.00;97769.05;1723904;82;20205;-85
2022/09/10 03:42:44;;;;;;;;;;;;;;;14.65;100.00;97764.72;1720662;82;20245;-92
2022/09/10 03:45:10;;;;;;;;;;;;;;;14.63;100.00;97763.67;1729854;82;20166;-86
2022/09/10 03:47:37;;;;;;;;;;;;;;;14.63;100.00;97751.41;1720687;82;21070;-85
2022/09/10 03:50:03;;;;;;;;;;;;;;;14.69;100.00;97741.15;1738183;82;20189;-86
2022/09/10 03:52:29;;;;;;;;;;;;;;;14.67;100.00;97746.92;1705803;82;20173;-92
2022/09/10 03:54:55;;;;;;;;;;;;;;;14.64;100.00;97747.56;1708946;82;20168;-86
2022/09/10 03:57:21;;;;;;;;;;;;;;;14.65;100.00;97755.18;1734122;82;20184;-91
2022/09/10 03:59:47;;;;;;;;;;;;;;;14.67;100.00;97750.20;1729557;82;21029;-85
2022/09/10 04:02:13;;;;;;;;;;;;;;;14.70;100.00;97750.13;1718198;82;20752;-91
2022/09/10 04:04:39;;;;;;;;;;;;;;;14.73;100.00;97745.44;1724518;82;20193;-85
2022/09/10 04:07:05;;;;;;;;;;;;;;;14.75;100.00;97746.72;1745280;82;20165;-85
2022/09/10 04:09:31;;;;;;;;;;;;;;;14.77;100.00;97747.77;1733951;82;20174;-84
2022/09/10 04:11:59;;;;;;;;;;;;;;;14.76;100.00;97748.33;1729450;82;21139;-85
2022/09/10 04:14:25;;;;;;;;;;;;;;;14.81;100.00;97747.41;1744129;82;20197;-92
2022/09/10 04:16:51;;;;;;;;;;;;;;;14.82;100.00;97751.73;1735131;82;20196;-91
2022/09/10 04:19:17;;;;;;;;;;;;;;;14.84;100.00;97753.02;1717706;82;20161;-85
2022/09/10 04:21:43;;;;;;;;;;;;;;;14.80;100.00;97753.42;1711476;82;20175;-85
2022/09/10 04:24:11;;;;;;;;;;;;;;;14.81;100.00;97749.57;1715626;82;21692;-91
2022/09/10 04:26:36;;;;;;;;;;;;;;;14.80;100.00;97756.15;1740460;82;20165;-91
2022/09/10 04:29:02;;;;;;;;;;;;;;;14.81;100.00;97755.59;1725138;82;20708;-92
2022/09/10 04:31:28;;;;;;;;;;;;;;;14.86;100.00;97754.88;1719132;82;20183;-85
2022/09/10 04:33:54;;;;;;;;;;;;;;;14.88;100.00;97754.02;1710591;82;20542;-91
2022/09/10 04:36:19;;;;;;;;;;;;;;;14.91;100.00;97747.93;1745328;82;21044;-91
2022/09/10 04:38:45;;;;;;;;;;;;;;;14.92;100.00;97751.46;1745196;82;20184;-91
2022/09/10 04:41:14;;;;;;;;;;;;;;;14.92;100.00;97748.17;1743815;82;20236;-85
2022/09/10 04:43:39;;;;;;;;;;;;;;;14.92;100.00;97748.73;1712387;82;20432;-91
2022/09/10 04:46:05;;;;;;;;;;;;;;;14.93;100.00;97748.41;1708637;82;20468;-86
2022/09/10 04:48:32;;;;;;;;;;;;;;;14.97;100.00;97747.80;1700542;82;21135;-85
2022/09/10 04:50:58;;;;;;;;;;;;;;;15.00;100.00;97741.70;1717732;82;20173;-85
2022/09/10 04:53:26;;;;;;;;;;;;;;;15.03;100.00;97740.50;1700225;82;20421;-86
2022/09/10 04:55:52;;;;;;;;;;;;;;;15.07;100.00;97737.97;1721260;82;20165;-86
2022/09/10 04:58:18;;;;;;;;;;;;;;;15.11;100.00;97734.84;1743493;82;20181;-85
2022/09/10 05:00:44;;;;;;;;;;;;;;;15.16;100.00;97728.69;1733748;82;21915;-85
2022/09/10 05:03:09;;;;;;;;;;;;;;;15.19;100.00;97732.70;1720505;82;20279;-91
2022/09/10 05:05:35;;;;;;;;;;;;;;;15.17;100.00;97737.11;1719909;82;20730;-91
2022/09/10 05:08:04;;;;;;;;;;;;;;;15.17;100.00;97737.11;1737610;82;20204;-90
2022/09/10 05:10:29;;;;;;;;;;;;;;;15.21;100.00;97738.64;1710666;82;20180;-85
2022/09/10 05:12:54;;;;;;;;;;;;;;;15.19;100.00;97734.06;1721100;82;21065;-92
2022/09/10 05:15:21;;;;;;;;;;;;;;;15.17;100.00;97730.29;1728364;82;20780;-92
2022/09/10 05:17:47;;;;;;;;;;;;;;;15.13;100.00;97735.35;1745116;82;20189;-85
2022/09/10 05:20:13;;;;;;;;;;;;;;;15.11;100.00;97734.84;1741594;82;20213;-91
2022/09/10 05:22:41;;;;;;;;;;;;;;;15.13;100.00;97729.33;1745344;82;20201;-92
2022/09/10 05:25:07;;;;;;;;;;;;;;;15.11;100.00;97724.72;1738894;82;21081;-92
2022/09/10 05:27:33;;;;;;;;;;;;;;;15.11;100.00;97724.72;1708122;82;20169;-85
2022/09/10 05:29:58;;;;;;;;;;;;;;;15.13;100.00;97726.60;1731838;82;20212;-86
2022/09/10 05:32:24;;;;;;;;;;;;;;;15.14;100.00;97732.30;1745264;82;20481;-92
2022/09/10 05:34:50;;;;;;;;;;;;;;;15.10;100.00;97729.94;1731502;82;20264;-93
2022/09/10 05:37:16;;;;;;;;;;;;;;;15.10;100.00;97719.59;1718168;82;21065;-85
2022/09/10 05:39:42;;;;;;;;;;;;;;;15.11;100.00;97727.45;1720177;82;20139;-85
2022/09/10 05:42:08;;;;;;;;;;;;;;;15.12;100.00;97729.06;1720700;82;20268;-92
2022/09/10 05:44:34;;;;;;;;;;;;;;;15.14;100.00;97732.86;1720433;82;20185;-92
2022/09/10 05:47:01;;;;;;;;;;;;;;;15.13;100.00;97732.63;1722330;82;37023;-86
2022/09/10 05:49:26;;;;;;;;;;;;;;;15.13;100.00;97735.35;1732498;82;21144;-92
2022/09/10 05:51:52;;;;;;;;;;;;;;;15.11;100.00;97734.84;1736670;82;20177;-85
2022/09/10 05:54:18;;;;;;;;;;;;;;;15.08;100.00;97728.09;1731235;82;20228;-86
2022/09/10 05:56:43;;;;;;;;;;;;;;;15.06;100.00;97735.00;1745390;82;20196;-92
2022/09/10 05:59:09;;;;;;;;;;;;;;;15.09;100.00;97730.27;1733907;82;20171;-84
2022/09/10 06:01:36;;;;;;;;;;;;;;;15.03;100.00;97732.32;1703896;82;21969;-90
2022/09/10 06:04:02;;;;;;;;;;;;;;;15.01;100.00;97726.38;1728076;82;20209;-89
2022/09/10 06:06:28;;;;;;;;;;;;;;;15.06;100.00;97724.08;1745515;82;20269;-92
2022/09/10 06:08:54;;;;;;;;;;;;;;;15.02;100.00;97722.53;1739367;82;20410;-92
2022/09/10 06:11:20;;;;;;;;;;;;;;;14.98;100.00;97720.77;1735149;82;21399;-92
2022/09/10 06:13:46;;;;;;;;;;;;;;;14.97;100.00;97725.98;1711451;82;21144;-85
2022/09/10 06:16:12;;;;;;;;;;;;;;;15.05;100.00;97719.75;1735428;82;20220;-92
2022/09/10 06:18:38;;;;;;;;;;;;;;;15.08;100.00;97723.20;1745214;82;20319;-92
2022/09/10 06:21:07;;;;;;;;;;;;;;;15.17;100.00;97724.03;1745346;82;20188;-90
2022/09/10 06:23:35;;;;;;;;;;;;;;;15.21;100.00;97718.17;1710714;82;20144;-85
2022/09/10 06:26:03;;;;;;;;;;;;;;;15.26;100.00;97723.49;1703223;82;21909;-86
2022/09/10 06:28:30;;;;;;;;;;;;;;;15.33;100.00;97717.02;1720270;82;20234;-90
2022/09/10 06:30:56;;;;;;;;;;;;;;;15.37;100.00;97722.63;1745172;82;20162;-91
2022/09/10 06:33:21;;;;;;;;;;;;;;;15.46;100.00;97722.89;1744940;82;20197;-92
2022/09/10 06:35:52;;;;;;;;;;;;;;;15.48;100.00;97722.03;1727534;82;20203;-92
2022/09/10 06:38:18;;;;;;;;;;;;;;;15.53;100.00;97723.79;1699481;82;21103;-91
2022/09/10 06:40:53;;;;;;;;;;;;;;;15.54;100.00;97719.94;1720455;82;20249;-85
2022/09/10 06:43:23;;;;;;;;;;;;;;;15.55;100.00;97724.27;1720943;82;20194;-92
2022/09/10 06:45:51;;;;;;;;;;;;;;;15.60;100.00;97725.49;1728806;82;20190;-91
2022/09/10 06:48:20;;;;;;;;;;;;;;;15.64;100.00;97727.88;1720136;82;20128;-85
2022/09/10 06:50:53;;;;;;;;;;;;;;;15.68;100.00;97724.73;1720033;82;21798;-92
2022/09/10 06:53:20;;;;;;;;;;;;;;;15.66;100.00;97720.16;1719213;82;20158;-86
2022/09/10 06:55:50;;;;;;;;;;;;;;;15.63;100.00;97722.70;1727949;82;20213;-85
2022/09/10 06:58:18;;;;;;;;;;;;;;;15.64;100.00;97723.78;1737300;82;20527;-91
2022/09/10 07:00:46;;;;;;;;;;;;;;;15.64;100.00;97727.07;1728222;82;20158;-92
2022/09/10 07:03:14;;;;;;;;;;;;;;;15.62;100.00;97724.63;1741514;82;21781;-85
2022/09/10 07:05:40;;;;;;;;;;;;;;;15.63;100.00;97725.44;1746520;82;20154;-86
2022/09/10 07:08:06;;;;;;;;;;;;;;;15.63;100.00;97727.61;1740353;82;20295;-91
2022/09/10 07:10:32;;;;;;;;;;;;;;;15.64;100.00;97725.14;1726837;82;20162;-92
2022/09/10 07:13:00;;;;;;;;;;;;;;;15.58;100.00;97721.48;1739276;82;20163;-86
2022/09/10 07:15:27;;;;;;;;;;;;;;;15.52;100.00;97717.53;1717448;82;21085;-86
2022/09/10 07:17:53;;;;;;;;;;;;;;;15.53;100.00;97713.67;1720557;82;20136;-85
2022/09/10 07:20:20;;;;;;;;;;;;;;;15.58;100.00;97718.19;1725609;82;20232;-86
2022/09/10 07:22:45;;;;;;;;;;;;;;;15.61;100.00;97720.86;1696514;82;20253;-93
2022/09/10 07:25:11;;;;;;;;;;;;;;;15.62;100.00;97718.38;1714734;82;20194;-92
2022/09/10 07:27:37;;;;;;;;;;;;;;;15.64;100.00;97724.34;1704138;82;21084;-86
2022/09/10 07:30:03;;;;;;;;;;;;;;;15.64;100.00;97719.68;1720669;82;20174;-85
2022/09/10 07:32:32;;;;;;;;;;;;;;;15.63;100.00;97722.14;1720358;82;20175;-85
2022/09/10 07:34:58;;;;;;;;;;;;;;;15.66;100.00;97719.36;1719343;82;20211;-91
2022/09/10 07:37:24;;;;;;;;;;;;;;;15.78;100.00;97719.52;1707198;82;20360;-92
2022/09/10 07:39:50;;;;;;;;;;;;;;;15.94;100.00;97722.58;1712826;82;21062;-85
2022/09/10 07:42:16;;;;;;;;;;;;;;;16.08;100.00;97719.93;1718375;82;20267;-91
2022/09/10 07:44:42;;;;;;;;;;;;;;;16.21;100.00;97720.87;1709811;82;20325;-85
2022/09/10 07:47:08;;;;;;;;;;;;;;;16.31;100.00;97720.53;1744969;82;20232;-86
2022/09/10 07:49:33;;;;;;;;;;;;;;;16.34;100.00;97722.63;1741886;82;20180;-86
2022/09/10 07:51:59;;;;;;;;;;;;;;;16.42;100.00;97722.38;1720481;82;21102;-86
2022/09/10 07:54:27;;;;;;;;;;;;;;;16.35;100.00;97720.70;1729456;82;20124;-85
2022/09/10 07:56:53;;;;;;;;;;;;;;;16.45;100.00;97720.35;1743280;82;20193;-86
2022/09/10 07:59:18;;;;;;;;;;;;;;;16.56;100.00;97728.45;1735562;82;20614;-91
2022/09/10 08:01:44;;;;;;;;;;;;;;;16.65;100.00;97725.69;1721918;82;20214;-91
2022/09/10 08:04:10;;;;;;;;;;;;;;;16.71;100.00;97730.45;1727690;80;21950;-91
2022/09/10 08:06:36;;;;;;;;;;;;;;;16.69;100.00;97728.63;1719936;82;20209;-85
2022/09/10 08:09:08;;;;;;;;;;;;;;;16.75;100.00;97726.75;1719816;82;20484;-92
2022/09/10 08:11:33;;;;;;;;;;;;;;;16.79;100.00;97734.53;1708638;80;20159;-90
2022/09/10 08:13:59;;;;;;;;;;;;;;;16.86;100.00;97734.03;1720219;82;20201;-86
2022/09/10 08:16:25;;;;;;;;;;;;;;;16.81;100.00;97738.30;1710304;82;21062;-91
2022/09/10 08:18:54;;;;;;;;;;;;;;;16.94;100.00;97732.41;1744880;82;20198;-90
2022/09/10 08:21:20;;;;;;;;;;;;;;;17.03;100.00;97734.53;1740527;82;20167;-91
2022/09/10 08:23:55;;;;;;;;;;;;;;;17.11;100.00;97735.88;1724999;82;20233;-86
2022/09/10 08:26:22;;;;;;;;;;;;;;;17.08;100.00;97737.87;1720139;82;20462;-86
2022/09/10 08:28:50;;;;;;;;;;;;;;;17.04;100.00;97733.41;1720204;82;21079;-91
2022/09/10 08:31:16;;;;;;;;;;;;;;;16.85;100.00;97738.71;1718695;80;21039;-85
2022/09/10 08:33:48;;;;;;;;;;;;;;;17.02;100.00;97741.15;1718913;82;20191;-86
2022/09/10 08:36:15;;;;;;;;;;;;;;;17.16;100.00;97737.61;1720432;82;20167;-86
2022/09/10 08:38:41;;;;;;;;;;;;;;;17.26;100.00;97735.89;1734648;80;20233;-86
2022/09/10 08:41:27;;;;;;;;;;;;;;;17.33;100.00;97733.98;1721585;82;21081;-91
2022/09/10 08:43:57;;;;;;;;;;;;;;;17.54;100.00;97740.89;1733488;82;20217;-86
2022/09/10 08:46:26;;;;;;;;;;;;;;;17.74;100.00;97726.42;1727189;82;20899;-88
2022/09/10 08:49:07;;;;;;;;;;;;;;;17.89;100.00;97728.58;1729639;82;20236;-90
2022/09/10 08:51:45;;;;;;;;;;;;;;;17.92;99.69;97728.47;1712078;82;20204;-91
2022/09/10 08:54:14;;;;;;;;;;;;;;;17.84;97.22;97726.59;1741748;82;21355;-92
2022/09/10 08:56:41;;;;;;;;;;;;;;;17.89;97.31;97727.78;1741310;82;20205;-89
2022/09/10 08:59:22;;;;;;;;;;;;;;;17.95;97.67;97727.25;1728421;82;20426;-86
2022/09/10 09:01:51;;;;;;;;;;;;;;;18.05;97.22;97731.52;1717550;82;20271;-86
2022/09/10 09:04:33;;;;;;;;;;;;;;;18.13;98.63;97731.22;1727587;82;20156;-86
2022/09/10 09:07:00;;;;;;;;;;;;;;;18.21;98.67;97739.94;1730418;82;21087;-86
2022/09/10 09:09:26;;;;;;;;;;;;;;;18.36;96.62;97739.30;1715504;80;20183;-90
2022/09/10 09:12:01;;;;;;;;;;;;;;;18.43;97.06;97734.06;1706797;82;20300;-92
2022/09/10 09:14:32;;;;;;;;;;;;;;;18.38;93.60;97732.92;1728750;82;20199;-86
2022/09/10 09:17:18;;;;;;;;;;;;;;;18.58;95.01;97744.41;1719766;82;20560;-86
2022/09/10 09:19:54;;;;;;;;;;;;;;;18.49;91.99;97738.78;1726426;82;21328;-91
2022/09/10 09:22:22;;;;;;;;;;;;;;;18.76;92.54;97736.82;1720815;82;20623;-85
2022/09/10 09:24:52;;;;;;;;;;;;;;;18.76;90.69;97736.82;1723881;82;20140;-86
2022/09/10 09:27:18;;;;;;;;;;;;;;;19.10;92.45;97736.19;1732579;82;20131;-91
2022/09/10 09:30:05;;;;;;;;;;;;;;;19.10;91.03;97737.56;1724169;82;20217;-90
2022/09/10 09:32:36;;;;;;;;;;;;;;;19.11;90.11;97739.96;1688983;83;21138;-89
2022/09/10 09:35:15;;;;;;;;;;;;;;;19.07;91.07;97740.43;1727434;82;20629;-86
2022/09/10 09:37:40;;;;;;;;;;;;;;;19.06;92.26;97730.59;1676262;84;20345;-92
2022/09/10 09:40:19;;;;;;;;;;;;;;;19.09;93.34;97735.97;1654276;85;20290;-86
2022/09/10 09:42:55;;;;;;;;;;;;;;;19.12;93.31;97729.20;1654754;85;20180;-92
2022/09/10 09:45:24;;;;;;;;;;;;;;;19.17;92.36;97729.56;1670154;85;21062;-86
2022/09/10 09:47:53;;;;;;;;;;;;;;;19.18;92.63;97727.62;1675217;85;20183;-86
2022/09/10 09:50:18;;;;;;;;;;;;;;;19.09;91.57;97727.73;1674154;85;20220;-86
2022/09/10 09:52:43;;;;;;;;;;;;;;;19.16;92.80;97728.77;1673353;85;20174;-86
2022/09/10 09:55:22;;;;;;;;;;;;;;;19.12;91.57;97722.34;1727981;82;20192;-87
2022/09/10 09:57:50;;;;;;;;;;;;;;;19.20;93.14;97720.63;1737594;82;21154;-92
2022/09/10 10:00:35;;;;;;;;;;;;;;;19.14;90.91;97718.70;1687160;83;20228;-86
2022/09/10 10:03:13;;;;;;;;;;;;;;;19.14;89.03;97720.62;1739683;82;20484;-91
2022/09/10 10:05:38;;;;;;;;;;;;;;;19.03;88.55;97720.28;1724995;82;20206;-91
2022/09/10 10:08:04;;;;;;;;;;;;;;;18.91;86.90;97718.91;1720286;82;20175;-92
2022/09/10 10:10:30;;;;;;;;;;;;;;;18.98;88.96;97705.99;1719411;82;21887;-85
2022/09/10 10:12:56;;;;;;;;;;;;;;;18.83;89.23;97712.94;1744897;82;21530;-86
2022/09/10 10:15:40;;;;;;;;;;;;;;;18.75;89.61;97706.98;1744850;82;20759;-86
2022/09/10 10:18:25;;;;;;;;;;;;;;;18.68;89.56;97704.78;1744896;82;20193;-86
2022/09/10 10:21:16;;;;;;;;;;;;;;;18.38;89.35;97710.18;1744475;82;20185;-86
2022/09/10 10:23:42;;;;;;;;;;;;;;;18.39;90.32;97700.23;1708771;81;21157;-87
2022/09/10 10:26:27;;;;;;;;;;;;;;;18.52;91.50;97708.72;1734147;82;20170;-87
2022/09/10 10:29:05;;;;;;;;;;;;;;;18.49;91.55;97709.98;1710805;82;20145;-91
2022/09/10 10:31:33;;;;;;;;;;;;;;;18.56;91.17;97708.28;1720460;82;20297;-86
2022/09/10 10:34:14;;;;;;;;;;;;;;;18.63;91.84;97710.48;1744817;82;20174;-92
2022/09/10 10:36:52;;;;;;;;;;;;;;;18.56;90.43;97706.11;1713139;82;21147;-92
2022/09/10 10:39:44;;;;;;;;;;;;;;;18.77;90.03;97706.86;1736433;82;20195;-86
2022/09/10 10:42:17;;;;;;;;;;;;;;;18.65;86.53;97706.02;1729205;82;20193;-86
2022/09/10 10:44:49;;;;;;;;;;;;;;;18.97;86.03;97710.68;1726782;82;20410;-92
2022/09/10 10:47:25;;;;;;;;;;;;;;;19.01;85.81;97706.09;1672980;82;20215;-92
2022/09/10 10:50:03;;;;;;;;;;;;;;;19.16;84.62;97704.05;1708521;82;21919;-86
2022/09/10 10:53:01;;;;;;;;;;;;;;;19.26;84.60;97704.73;1723443;82;20192;-86
2022/09/10 10:55:34;;;;;;;;;;;;;;;19.15;84.60;97702.45;1707236;82;20202;-91
2022/09/10 10:58:15;;;;;;;;;;;;;;;19.47;85.36;97699.89;1740166;82;20434;-86
2022/09/10 11:00:43;;;;;;;;;;;;;;;19.61;84.66;97692.70;1745076;82;20583;-92
2022/09/10 11:03:16;;;;;;;;;;;;;;;19.43;82.64;97703.12;1719178;82;21465;-91
2022/09/10 11:05:46;;;;;;;;;;;;;;;19.13;82.65;97702.55;1725269;82;20163;-86
2022/09/10 11:08:31;;;;;;;;;;;;;;;19.34;84.71;97701.87;1737236;82;20204;-86
2022/09/10 11:10:59;;;;;;;;;;;;;;;19.32;84.75;97700.05;1645374;85;20212;-92
2022/09/10 11:13:38;;;;;;;;;;;;;;;19.32;84.92;97697.88;1702372;84;20193;-93
2022/09/10 11:16:24;;;;;;;;;;;;;;;19.40;85.52;97696.38;1709647;83;21046;-91
2022/09/10 11:18:57;;;;;;;;;;;;;;;19.44;84.21;97685.48;1703548;84;20978;-85
2022/09/10 11:21:30;;;;;;;;;;;;;;;19.75;85.11;97684.89;1700454;84;20215;-85
2022/09/10 11:24:02;;;;;;;;;;;;;;;19.70;83.83;97687.30;1704202;84;20196;-86
2022/09/10 11:26:36;;;;;;;;;;;;;;;19.53;82.52;97686.16;1699452;84;20180;-87
2022/09/10 11:29:12;;;;;;;;;;;;;;;19.52;82.28;97685.13;1652132;86;21166;-87
2022/09/10 11:31:40;;;;;;;;;;;;;;;19.89;83.09;97684.49;1662679;85;20175;-86
2022/09/10 11:34:15;;;;;;;;;;;;;;;19.99;82.59;97680.67;1687905;85;20176;-86
2022/09/10 11:36:48;;;;;;;;;;;;;;;20.08;82.57;97670.92;1687083;83;20189;-87
2022/09/10 11:39:20;;;;;;;;;;;;;;;20.08;81.72;97658.55;1660712;85;20202;-86
2022/09/10 11:41:46;;;;;;;;;;;;;;;19.95;80.60;97670.73;1661472;85;20851;-87
2022/09/10 11:44:35;;;;;;;;;;;;;;;19.97;80.13;97669.80;1672169;85;20315;-85
2022/09/10 11:47:21;;;;;;;;;;;;;;;20.03;81.34;97671.73;1678380;85;20175;-85
2022/09/10 11:50:09;;;;;;;;;;;;;;;19.83;81.73;97670.21;1679768;85;20169;-93
2022/09/10 11:52:35;;;;;;;;;;;;;;;19.68;82.34;97671.73;1689642;83;20169;-86
2022/09/10 11:55:07;;;;;;;;;;;;;;;19.48;81.08;97669.89;1680730;85;21225;-86
2022/09/10 11:57:33;;;;;;;;;;;;;;;19.72;81.62;97670.45;1661605;85;20148;-88
2022/09/10 12:00:18;;;;;;;;;;;;;;;19.50;82.29;97664.08;1677574;85;20203;-86
2022/09/10 12:03:01;;;;;;;;;;;;;;;19.70;83.00;97660.39;1661476;85;20210;-86
2022/09/10 12:05:47;;;;;;;;;;;;;;;19.60;81.74;97657.55;1675031;85;20202;-87
2022/09/10 12:08:50;;;;;;;;;;;;;;;19.53;80.23;97653.76;1671467;85;21103;-86
2022/09/10 12:11:29;;;;;;;;;;;;;;;19.68;81.42;97654.45;1661985;85;20246;-93
2022/09/10 12:13:55;;;;;;;;;;;;;;;19.96;79.75;97648.95;1661928;85;20223;-87
2022/09/10 12:16:34;;;;;;;;;;;;;;;20.31;80.40;97646.96;1685560;85;20173;-94
2022/09/10 12:19:00;;;;;;;;;;;;;;;20.19;78.22;97643.13;1680858;85;20168;-86
2022/09/10 12:21:31;;;;;;;;;;;;;;;20.26;78.88;97641.95;1686506;85;21094;-86
2022/09/10 12:23:59;;;;;;;;;;;;;;;20.09;77.15;97640.09;1681308;85;20175;-92
2022/09/10 12:26:24;;;;;;;;;;;;;;;20.05;76.57;97630.93;1686252;85;20205;-86
2022/09/10 12:28:54;;;;;;;;;;;;;;;20.10;77.10;97633.44;1689566;85;20183;-94
2022/09/10 12:31:20;;;;;;;;;;;;;;;20.19;75.25;97629.38;1669893;83;21024;-86
2022/09/10 12:33:50;;;;;;;;;;;;;;;20.35;74.89;97625.28;1661735;85;21717;-93
2022/09/10 12:36:29;;;;;;;;;;;;;;;20.40;73.91;97631.09;1661836;85;20164;-93
2022/09/10 12:39:15;;;;;;;;;;;;;;;20.36;73.60;97626.08;1661791;85;21004;-86
2022/09/10 12:41:44;;;;;;;;;;;;;;;20.22;72.89;97620.98;1681935;85;20172;-92
2022/09/10 12:44:28;;;;;;;;;;;;;;;20.41;75.86;97616.17;1661868;85;20175;-86
2022/09/10 12:47:16;;;;;;;;;;;;;;;20.39;75.39;97615.73;1678296;85;21878;-93
2022/09/10 12:49:49;;;;;;;;;;;;;;;20.51;74.56;97610.20;1660148;85;20164;-92
2022/09/10 12:52:22;;;;;;;;;;;;;;;20.46;75.20;97609.88;1675648;85;20192;-92
2022/09/10 12:54:55;;;;;;;;;;;;;;;20.21;73.37;97613.89;1664415;85;20179;-85